Time;durP1;ratioP1;P1;durP2;ratioP2;P2;SDS_P1;SDS_P2;PMS_P1;PMS_P2;Temp;Humidity;BMP_temperature;BMP_pressure;BME280_temperature;BME280_humidity;BME280_pressure;Samples;Min_cycle;Max_cycle;Signal;HPM_P1;HPM_P2
2021/11/02 00:00:39;;;;;;;2.93;1.13;;;6.80;96.30;;;;;;5055767;28;20172;-81
2021/11/02 00:03:06;;;;;;;1.50;1.10;;;6.70;96.30;;;;;;5054974;28;20911;-82
2021/11/02 00:05:33;;;;;;;2.00;0.93;;;6.70;96.30;;;;;;5053088;28;20449;-80
2021/11/02 00:07:58;;;;;;;1.70;1.00;;;6.70;96.30;;;;;;5053535;28;20413;-82
2021/11/02 00:10:24;;;;;;;3.90;1.30;;;6.70;96.30;;;;;;5054569;28;20410;-82
2021/11/02 00:12:50;;;;;;;1.83;1.20;;;6.60;96.30;;;;;;5052593;28;20186;-82
2021/11/02 00:15:21;;;;;;;1.40;1.00;;;6.70;96.30;;;;;;5053419;28;20187;-80
2021/11/02 00:17:50;;;;;;;5.27;0.87;;;6.70;96.30;;;;;;5053323;28;20421;-81
2021/11/02 00:20:16;;;;;;;2.63;0.97;;;6.70;96.30;;;;;;5053592;28;20914;-82
2021/11/02 00:22:43;;;;;;;1.87;1.00;;;6.70;96.30;;;;;;5052771;28;20438;-83
2021/11/02 00:25:11;;;;;;;1.93;0.87;;;6.70;96.30;;;;;;5053454;28;20167;-82
2021/11/02 00:27:39;;;;;;;2.00;0.93;;;6.70;96.30;;;;;;5054818;28;20414;-82
2021/11/02 00:30:09;;;;;;;2.03;1.00;;;6.70;96.30;;;;;;5053597;28;20410;-83
2021/11/02 00:32:35;;;;;;;1.53;0.80;;;6.70;96.30;;;;;;5052548;28;20515;-82
2021/11/02 00:35:00;;;;;;;2.80;1.47;;;6.70;96.30;;;;;;5053529;28;20414;-82
2021/11/02 00:37:26;;;;;;;1.40;0.97;;;6.70;96.30;;;;;;5053465;28;20254;-81
2021/11/02 00:39:53;;;;;;;1.50;0.90;;;6.80;96.30;;;;;;5054646;28;20163;-82
2021/11/02 00:42:19;;;;;;;1.53;0.70;;;6.80;96.30;;;;;;5052710;28;20437;-82
2021/11/02 00:44:51;;;;;;;1.60;1.00;;;6.80;96.30;;;;;;5054790;28;20406;-82
2021/11/02 00:47:22;;;;;;;1.73;0.90;;;6.80;96.30;;;;;;5053449;28;20406;-83
2021/11/02 00:49:47;;;;;;;2.40;0.90;;;6.80;96.30;;;;;;5052736;28;20497;-82
2021/11/02 00:52:12;;;;;;;1.70;0.93;;;6.80;96.30;;;;;;5053166;28;20474;-83
2021/11/02 00:54:38;;;;;;;2.10;1.00;;;6.80;96.30;;;;;;5053030;28;20207;-82
2021/11/02 00:57:04;;;;;;;1.30;0.90;;;6.80;96.30;;;;;;5052944;28;20163;-84
2021/11/02 00:59:30;;;;;;;2.10;0.80;;;6.70;96.30;;;;;;5053999;28;20175;-82
2021/11/02 05:52:17;;;;;;;4.80;3.07;;;6.60;96.30;;;;;;4992864;28;20472;-84
2021/11/02 05:54:53;;;;;;;5.27;3.50;;;6.60;96.30;;;;;;4992813;28;20467;-83
2021/11/02 05:59:53;;;;;;;3.53;2.70;;;6.60;96.30;;;;;;4993743;28;20420;-83
2021/11/02 06:05:05;;;;;;;5.10;3.00;;;6.60;96.30;;;;;;4996061;28;20531;-82
2021/11/02 06:27:54;;;;;;;4.73;3.40;;;6.60;96.30;;;;;;4992293;28;20907;-85
2021/11/02 06:30:25;;;;;;;7.17;5.20;;;6.60;96.30;;;;;;4993081;28;20917;-85
2021/11/02 06:33:04;;;;;;;4.90;3.77;;;6.60;96.30;;;;;;5008893;28;20412;-82
2021/11/02 06:35:34;;;;;;;3.20;2.90;;;6.60;96.30;;;;;;5011245;28;20431;-82
2021/11/02 06:38:28;;;;;;;4.63;3.87;;;6.60;96.30;;;;;;5012221;28;20501;-82
2021/11/02 06:51:51;;;;;;;4.90;3.67;;;6.70;96.30;;;;;;4992895;28;20571;-83
2021/11/02 07:00:21;;;;;;;4.83;3.43;;;6.80;96.30;;;;;;4992521;28;20439;-82
2021/11/02 07:19:41;;;;;;;3.23;3.03;;;7.10;96.30;;;;;;4997212;28;20411;-82
2021/11/02 07:24:52;;;;;;;3.43;3.00;;;7.10;96.30;;;;;;5016265;28;20451;-81
2021/11/02 08:48:09;;;;;;;6.63;3.37;;;9.00;96.30;;;;;;4938686;28;20422;-86
2021/11/02 08:50:41;;;;;;;4.27;2.60;;;9.10;96.30;;;;;;4988845;28;20939;-85
2021/11/02 08:53:09;;;;;;;5.60;2.77;;;9.30;96.30;;;;;;4998084;28;20184;-85
2021/11/02 08:55:35;;;;;;;3.03;2.73;;;9.20;96.30;;;;;;5001214;28;20429;-86
2021/11/02 08:58:02;;;;;;;3.83;2.40;;;9.10;96.30;;;;;;4984604;28;20490;-85
2021/11/02 09:00:28;;;;;;;7.13;2.30;;;9.00;96.30;;;;;;4994260;28;20416;-85
2021/11/02 09:03:05;;;;;;;3.90;2.43;;;9.10;96.30;;;;;;4975995;28;20861;-84
2021/11/02 09:05:34;;;;;;;6.70;2.90;;;9.00;96.30;;;;;;4976840;28;20178;-85
2021/11/02 09:08:01;;;;;;;2.43;2.07;;;9.00;96.30;;;;;;4991942;28;20439;-84
2021/11/02 09:10:28;;;;;;;5.97;2.47;;;9.10;96.30;;;;;;5002484;28;20424;-85
2021/11/02 09:12:56;;;;;;;4.97;2.23;;;9.20;96.30;;;;;;4978905;28;20473;-85
2021/11/02 09:15:27;;;;;;;3.17;2.10;;;9.30;96.30;;;;;;5006142;28;20996;-84
2021/11/02 09:17:55;;;;;;;9.77;3.37;;;9.40;96.30;;;;;;4994020;28;20408;-85
2021/11/02 09:20:22;;;;;;;2.73;1.80;;;9.40;96.30;;;;;;4976370;28;20424;-85
2021/11/02 09:22:49;;;;;;;3.53;2.27;;;9.40;96.30;;;;;;4993190;28;20457;-84
2021/11/02 09:25:16;;;;;;;2.73;2.07;;;9.30;96.30;;;;;;4976273;28;20754;-84
2021/11/02 09:27:42;;;;;;;2.23;1.83;;;9.20;96.30;;;;;;4976484;28;20479;-85
2021/11/02 09:30:10;;;;;;;9.30;3.00;;;9.20;96.30;;;;;;4974500;28;20451;-82
2021/11/02 09:32:37;;;;;;;5.20;2.70;;;9.20;96.30;;;;;;4977397;28;20455;-83
2021/11/02 09:35:04;;;;;;;4.40;2.20;;;9.20;96.30;;;;;;4982190;28;20457;-82
2021/11/02 09:37:37;;;;;;;4.47;2.07;;;9.30;96.30;;;;;;4994288;28;20471;-82
2021/11/02 09:40:27;;;;;;;3.77;2.40;;;9.50;96.30;;;;;;4976211;28;20429;-83
2021/11/02 09:43:12;;;;;;;3.90;2.30;;;9.50;96.30;;;;;;4993698;28;20404;-83
2021/11/02 09:45:55;;;;;;;4.23;2.47;;;9.70;96.30;;;;;;4976835;28;20405;-82
2021/11/02 09:48:54;;;;;;;4.03;1.90;;;9.80;96.30;;;;;;4976848;28;20401;-82
2021/11/02 09:51:45;;;;;;;3.70;2.00;;;9.70;96.30;;;;;;4976076;28;20476;-82
2021/11/02 09:54:24;;;;;;;2.70;2.00;;;9.80;96.30;;;;;;4975658;28;20456;-81
2021/11/02 09:57:23;;;;;;;3.77;1.73;;;9.70;96.30;;;;;;4976310;28;20432;-82
2021/11/02 10:00:01;;;;;;;6.27;2.10;;;9.50;96.30;;;;;;4957312;28;20509;-81
2021/11/02 10:03:09;;;;;;;3.53;1.60;;;9.50;96.30;;;;;;4988458;28;20464;-81
2021/11/02 10:05:49;;;;;;;4.60;1.23;;;9.60;96.30;;;;;;4972963;28;20448;-82
2021/11/02 10:08:59;;;;;;;2.40;1.50;;;9.90;96.30;;;;;;4994263;28;20564;-82
2021/11/02 10:11:36;;;;;;;1.30;1.07;;;10.00;96.30;;;;;;4993075;28;20895;-82
2021/11/02 10:14:26;;;;;;;2.83;1.57;;;10.40;96.30;;;;;;5000140;28;20455;-82
2021/11/02 10:17:00;;;;;;;3.97;1.30;;;10.80;96.30;;;;;;4985474;28;20416;-82
2021/11/02 10:20:02;;;;;;;2.30;1.40;;;11.40;96.30;;;;;;4991930;28;20503;-81
2021/11/02 10:22:56;;;;;;;3.77;1.37;;;12.40;96.30;;;;;;4990773;28;20436;-82
2021/11/02 10:25:55;;;;;;;2.23;1.20;;;12.90;96.30;;;;;;4993154;28;20401;-83
2021/11/02 10:28:43;;;;;;;5.50;1.77;;;13.00;96.30;;;;;;4991932;28;20520;-82
2021/11/02 10:31:13;;;;;;;3.33;1.60;;;12.50;96.30;;;;;;4975096;28;20533;-83
2021/11/02 10:33:48;;;;;;;2.60;1.20;;;12.10;96.30;;;;;;4975362;28;20511;-83
2021/11/02 10:36:50;;;;;;;5.30;1.57;;;11.60;96.30;;;;;;4975547;28;20420;-83
2021/11/02 10:39:28;;;;;;;3.60;1.50;;;11.10;96.30;;;;;;4964471;28;20425;-82
2021/11/02 10:42:08;;;;;;;5.27;1.50;;;10.90;96.30;;;;;;4969526;28;20481;-82
2021/11/02 10:44:45;;;;;;;2.50;1.20;;;11.00;96.30;;;;;;4987768;28;20413;-80
2021/11/02 10:47:22;;;;;;;4.30;1.47;;;10.70;96.30;;;;;;4967007;28;20436;-83
2021/11/02 10:50:03;;;;;;;2.80;1.40;;;10.50;96.30;;;;;;4957069;28;20959;-83
2021/11/02 10:52:32;;;;;;;1.83;1.23;;;10.30;96.30;;;;;;4976621;28;20490;-82
2021/11/02 10:55:21;;;;;;;3.50;1.27;;;10.50;96.30;;;;;;4971677;28;20457;-83
2021/11/02 10:58:24;;;;;;;2.90;1.20;;;10.30;96.30;;;;;;4996487;28;20436;-83
2021/11/02 11:00:50;;;;;;;4.13;1.30;;;10.10;96.30;;;;;;4959379;28;20449;-84
2021/11/02 11:03:17;;;;;;;4.07;0.93;;;9.90;96.30;;;;;;4987711;28;20515;-83
2021/11/02 11:05:46;;;;;;;1.80;1.17;;;9.80;96.30;;;;;;4978904;28;20421;-84
2021/11/02 11:08:15;;;;;;;4.20;1.10;;;9.80;96.30;;;;;;4978807;28;20428;-84
2021/11/02 11:10:43;;;;;;;5.13;1.37;;;9.80;96.30;;;;;;4996288;28;20424;-84
2021/11/02 11:13:13;;;;;;;3.10;0.93;;;9.80;96.30;;;;;;4995508;28;20950;-83
2021/11/02 11:15:40;;;;;;;2.60;1.20;;;9.70;96.30;;;;;;4996238;28;20499;-84
2021/11/02 11:18:08;;;;;;;2.57;1.07;;;9.60;96.30;;;;;;4978393;28;20555;-84
2021/11/02 11:20:37;;;;;;;3.90;1.37;;;9.60;96.30;;;;;;4994233;28;20445;-83
2021/11/02 11:23:11;;;;;;;1.83;1.00;;;9.80;96.30;;;;;;4975626;28;20428;-83
2021/11/02 11:25:45;;;;;;;2.93;1.20;;;9.90;96.30;;;;;;4994938;28;20416;-84
2021/11/02 11:28:13;;;;;;;3.67;1.40;;;9.90;96.30;;;;;;4978484;28;20504;-83
2021/11/02 11:30:41;;;;;;;1.90;1.10;;;9.90;96.30;;;;;;4997328;28;20470;-84
2021/11/02 11:33:12;;;;;;;3.00;2.03;;;9.70;96.30;;;;;;4982211;28;20421;-83
2021/11/02 11:35:39;;;;;;;4.37;2.20;;;9.70;96.30;;;;;;4978593;28;20448;-84
2021/11/02 11:38:06;;;;;;;4.00;1.70;;;9.80;96.30;;;;;;4994681;28;20981;-84
2021/11/02 11:40:35;;;;;;;1.83;0.90;;;9.80;96.30;;;;;;4977857;28;20436;-83
2021/11/02 11:43:03;;;;;;;2.27;1.30;;;9.80;96.30;;;;;;4977620;28;20447;-83
2021/11/02 11:45:30;;;;;;;4.90;1.20;;;9.80;96.30;;;;;;4978437;28;20417;-82
2021/11/02 11:48:26;;;;;;;9.07;1.57;;;9.80;96.30;;;;;;4995753;28;20455;-82
2021/11/02 11:50:53;;;;;;;1.43;0.80;;;9.80;96.30;;;;;;4976464;28;20963;-82
2021/11/02 11:53:21;;;;;;;4.30;1.00;;;10.00;96.30;;;;;;4977533;28;20456;-82
2021/11/02 11:56:05;;;;;;;4.43;1.10;;;10.10;96.30;;;;;;4977855;28;20421;-82
2021/11/02 11:58:31;;;;;;;4.60;1.23;;;10.30;96.30;;;;;;4959012;28;20552;-82
2021/11/02 12:01:13;;;;;;;2.30;0.90;;;10.30;96.30;;;;;;4975025;28;20532;-82
2021/11/02 12:03:50;;;;;;;2.50;1.13;;;10.30;96.30;;;;;;4976181;28;20210;-82
2021/11/02 12:06:16;;;;;;;6.60;1.20;;;10.40;96.30;;;;;;4976136;28;20424;-83
2021/11/02 12:08:45;;;;;;;6.60;0.93;;;10.50;96.30;;;;;;4995217;28;20436;-82
2021/11/02 12:11:17;;;;;;;2.77;1.00;;;10.70;96.30;;;;;;4994486;28;20225;-82
2021/11/02 12:13:46;;;;;;;3.47;1.30;;;10.90;96.30;;;;;;4974888;28;20456;-82
2021/11/02 12:16:20;;;;;;;2.20;1.00;;;11.00;96.30;;;;;;4987824;28;20420;-82
2021/11/02 12:18:53;;;;;;;1.73;0.90;;;10.90;96.30;;;;;;4998320;28;20411;-82
2021/11/02 12:21:20;;;;;;;2.77;1.10;;;10.90;96.30;;;;;;4999702;28;20879;-82
2021/11/02 12:23:49;;;;;;;3.13;1.10;;;10.80;96.30;;;;;;4994881;28;21001;-82
2021/11/02 12:26:14;;;;;;;2.10;1.00;;;10.80;96.30;;;;;;4977612;28;20420;-82
2021/11/02 12:28:42;;;;;;;2.40;0.90;;;10.70;96.30;;;;;;4994817;28;20742;-82
2021/11/02 12:31:10;;;;;;;1.83;0.90;;;10.30;96.30;;;;;;4996436;28;20196;-82
2021/11/02 12:33:42;;;;;;;2.97;1.00;;;10.20;96.30;;;;;;5000774;28;20486;-82
2021/11/02 12:36:10;;;;;;;2.93;1.10;;;10.20;96.30;;;;;;4997268;28;21196;-81
2021/11/02 12:38:39;;;;;;;3.93;1.13;;;10.10;96.30;;;;;;4995895;28;20479;-81
2021/11/02 12:41:20;;;;;;;3.03;1.03;;;10.20;96.30;;;;;;4976096;28;21189;-82
2021/11/02 12:44:00;;;;;;;2.70;1.07;;;10.20;96.30;;;;;;4977492;28;20439;-82
2021/11/02 12:46:27;;;;;;;2.37;1.20;;;10.10;96.30;;;;;;4993635;28;20782;-83
2021/11/02 12:48:53;;;;;;;1.57;0.90;;;10.00;96.30;;;;;;4978225;28;20477;-82
2021/11/02 12:51:21;;;;;;;1.20;0.80;;;9.90;96.30;;;;;;5012438;28;20954;-82
2021/11/02 12:53:52;;;;;;;1.47;1.00;;;9.90;96.30;;;;;;4996445;28;20236;-83
2021/11/02 12:56:20;;;;;;;2.30;0.90;;;9.80;96.30;;;;;;5014210;28;20407;-82
2021/11/02 12:58:50;;;;;;;1.33;0.97;;;9.80;96.30;;;;;;5014109;28;20400;-82
2021/11/02 13:01:37;;;;;;;3.80;1.00;;;9.80;96.30;;;;;;5013303;28;20452;-82
2021/11/02 13:04:11;;;;;;;3.77;1.07;;;9.80;96.30;;;;;;4985294;28;20426;-81
2021/11/02 13:06:47;;;;;;;2.83;1.00;;;9.80;96.30;;;;;;4957686;28;20897;-82
2021/11/02 13:09:20;;;;;;;4.50;0.80;;;9.80;96.30;;;;;;4974668;28;20422;-82
2021/11/02 13:11:51;;;;;;;2.20;1.07;;;9.80;96.30;;;;;;4990622;28;20849;-83
2021/11/02 13:14:17;;;;;;;3.97;1.10;;;9.80;96.30;;;;;;4956102;28;20988;-83
2021/11/02 13:17:00;;;;;;;2.90;1.30;;;9.80;96.30;;;;;;4993102;28;20421;-83
2021/11/02 13:19:54;;;;;;;3.43;1.00;;;9.80;96.30;;;;;;4993864;28;20157;-83
2021/11/02 13:22:21;;;;;;;2.13;0.83;;;9.80;96.30;;;;;;4973234;28;20472;-83
2021/11/02 13:25:10;;;;;;;2.27;1.00;;;9.80;96.30;;;;;;4993737;28;20429;-83
2021/11/02 13:27:47;;;;;;;1.40;0.90;;;9.80;96.30;;;;;;4976521;28;20409;-81
2021/11/02 13:30:32;;;;;;;2.07;1.00;;;9.70;96.30;;;;;;4976579;28;20567;-81
2021/11/02 13:33:16;;;;;;;7.73;1.23;;;9.50;96.30;;;;;;4993348;28;20503;-81
2021/11/02 13:35:57;;;;;;;1.43;1.10;;;9.40;96.30;;;;;;4969625;28;20579;-81
2021/11/02 13:38:40;;;;;;;2.33;1.23;;;9.40;96.30;;;;;;4981616;28;20413;-81
2021/11/02 13:41:24;;;;;;;4.13;1.40;;;9.40;96.30;;;;;;4989566;28;21136;-81
2021/11/02 13:43:52;;;;;;;1.10;0.93;;;9.50;96.30;;;;;;4993597;28;20436;-81
2021/11/02 13:46:23;;;;;;;1.30;1.03;;;9.40;96.30;;;;;;4976968;28;21090;-79
2021/11/02 13:48:49;;;;;;;1.87;1.00;;;9.40;96.30;;;;;;4991167;28;20482;-80
2021/11/02 13:51:17;;;;;;;2.93;1.10;;;9.40;96.30;;;;;;4998624;28;20543;-80
2021/11/02 13:53:44;;;;;;;1.63;0.90;;;9.30;96.30;;;;;;4992898;28;20456;-80
2021/11/02 13:56:31;;;;;;;3.10;0.90;;;9.20;96.30;;;;;;4993382;28;20432;-80
2021/11/02 13:58:58;;;;;;;1.60;0.93;;;9.20;96.30;;;;;;4978022;28;20975;-80
2021/11/02 14:01:31;;;;;;;5.33;1.10;;;9.10;96.30;;;;;;4976111;28;20460;-78
2021/11/02 14:04:21;;;;;;;3.10;1.00;;;9.10;96.30;;;;;;4993086;28;20460;-79
2021/11/02 14:06:53;;;;;;;2.83;1.13;;;9.10;96.30;;;;;;4975426;28;20471;-82
2021/11/02 14:09:28;;;;;;;4.60;1.07;;;9.10;96.30;;;;;;4975537;28;20504;-80
2021/11/02 14:11:53;;;;;;;2.33;1.10;;;9.10;96.30;;;;;;4992140;28;20479;-79
2021/11/02 14:14:30;;;;;;;2.93;1.00;;;9.00;96.30;;;;;;4975653;28;20460;-80
2021/11/02 14:16:56;;;;;;;1.73;1.07;;;8.90;96.30;;;;;;4974946;28;20179;-81
2021/11/02 14:19:35;;;;;;;3.33;1.10;;;8.90;96.30;;;;;;4977909;28;20954;-82
2021/11/02 14:22:08;;;;;;;2.30;1.10;;;8.80;96.30;;;;;;5012394;28;20432;-82
2021/11/02 14:24:39;;;;;;;3.13;1.20;;;8.90;96.30;;;;;;5000324;28;20488;-82
2021/11/02 14:27:08;;;;;;;2.13;1.30;;;8.90;96.30;;;;;;4993356;28;20475;-81
2021/11/02 14:29:56;;;;;;;2.10;1.10;;;9.00;96.30;;;;;;4975914;28;20409;-82
2021/11/02 14:32:37;;;;;;;2.20;0.90;;;9.00;96.30;;;;;;4975419;28;20440;-82
2021/11/02 14:35:06;;;;;;;3.00;1.10;;;9.10;96.30;;;;;;4993102;28;21022;-81
2021/11/02 14:37:46;;;;;;;3.33;1.40;;;9.20;96.30;;;;;;4993333;28;20443;-81
2021/11/02 14:40:27;;;;;;;2.47;1.47;;;9.30;96.30;;;;;;4989096;28;20428;-82
2021/11/02 14:42:58;;;;;;;4.43;1.10;;;9.30;96.30;;;;;;4975392;28;20496;-81
2021/11/02 14:45:43;;;;;;;3.70;1.53;;;9.30;96.30;;;;;;4975930;28;20857;-78
2021/11/02 14:48:28;;;;;;;2.20;1.43;;;9.30;96.30;;;;;;4992687;28;20420;-79
2021/11/02 14:51:04;;;;;;;3.23;1.17;;;9.30;96.30;;;;;;4992406;28;20433;-80
2021/11/02 14:53:34;;;;;;;2.13;1.13;;;9.30;96.30;;;;;;4975229;28;20982;-80
2021/11/02 14:56:07;;;;;;;4.90;1.50;;;9.10;96.30;;;;;;4975099;28;20835;-79
2021/11/02 14:58:39;;;;;;;1.33;0.97;;;9.00;96.30;;;;;;4975074;28;20474;-78
2021/11/02 15:01:16;;;;;;;2.93;1.10;;;8.90;96.30;;;;;;4993590;28;20464;-82
2021/11/02 15:03:57;;;;;;;3.80;0.90;;;8.70;96.30;;;;;;4992971;28;20425;-81
2021/11/02 15:06:34;;;;;;;3.43;1.37;;;8.70;96.30;;;;;;4981368;28;20448;-80
2021/11/02 15:09:01;;;;;;;2.23;0.93;;;8.50;96.30;;;;;;4976025;28;20439;-79
2021/11/02 15:11:28;;;;;;;5.60;1.40;;;8.40;96.30;;;;;;4991914;28;20452;-77
2021/11/02 15:13:58;;;;;;;7.70;1.80;;;8.30;96.30;;;;;;4992166;28;20468;-79
2021/11/02 15:16:25;;;;;;;3.90;1.10;;;8.20;96.30;;;;;;4975151;28;20548;-77
2021/11/02 15:19:03;;;;;;;4.00;2.13;;;8.10;96.30;;;;;;4991131;28;20416;-78
2021/11/02 15:21:36;;;;;;;2.70;1.00;;;8.00;96.30;;;;;;4991725;28;20475;-77
2021/11/02 15:24:06;;;;;;;1.57;1.00;;;7.90;96.30;;;;;;4974906;28;20560;-78
2021/11/02 15:26:45;;;;;;;5.80;1.53;;;7.80;96.30;;;;;;4992447;28;20442;-78
2021/11/02 15:29:11;;;;;;;1.77;1.10;;;7.70;96.30;;;;;;4992263;28;20828;-78
2021/11/02 15:31:37;;;;;;;2.30;1.00;;;7.50;96.30;;;;;;4991498;28;20436;-78
2021/11/02 15:34:16;;;;;;;4.30;1.00;;;7.50;96.30;;;;;;4992162;28;21308;-78
2021/11/02 15:36:43;;;;;;;2.40;0.93;;;7.50;96.30;;;;;;4975452;28;20284;-77
2021/11/02 15:39:09;;;;;;;2.30;0.90;;;7.50;96.30;;;;;;4978773;28;20771;-79
2021/11/02 15:41:35;;;;;;;2.00;0.97;;;7.50;96.30;;;;;;4977541;28;20432;-79
2021/11/02 15:44:04;;;;;;;2.70;1.07;;;7.50;96.30;;;;;;4996072;28;20405;-78
2021/11/02 15:46:47;;;;;;;12.60;1.13;;;7.50;96.30;;;;;;4979165;28;20443;-77
2021/11/02 15:49:14;;;;;;;1.40;1.00;;;7.50;96.30;;;;;;4995885;28;20487;-77
2021/11/02 15:51:50;;;;;;;3.10;1.10;;;7.50;96.30;;;;;;4978243;28;20444;-77
2021/11/02 15:54:16;;;;;;;1.73;1.10;;;7.50;96.30;;;;;;4996250;28;20547;-77
2021/11/02 15:56:42;;;;;;;2.70;1.03;;;7.40;96.30;;;;;;4996442;28;20432;-78
2021/11/02 15:59:09;;;;;;;4.17;1.00;;;7.40;96.30;;;;;;4996178;28;20165;-77
2021/11/02 16:01:42;;;;;;;3.57;1.53;;;7.30;96.30;;;;;;4995374;28;20543;-77
2021/11/02 16:04:15;;;;;;;3.63;1.50;;;7.30;96.30;;;;;;4996160;28;20420;-78
2021/11/02 16:07:05;;;;;;;1.97;1.30;;;7.30;96.30;;;;;;4995922;28;20443;-81
2021/11/02 16:09:44;;;;;;;1.57;1.00;;;7.40;96.30;;;;;;4997093;28;20500;-80
2021/11/02 16:12:35;;;;;;;1.60;1.30;;;7.40;96.30;;;;;;4979124;28;20436;-80
2021/11/02 16:15:10;;;;;;;6.30;2.90;;;7.40;96.30;;;;;;4996959;28;20461;-81
2021/11/02 16:17:50;;;;;;;3.30;1.50;;;7.40;96.30;;;;;;4997296;28;20848;-80
2021/11/02 16:20:20;;;;;;;1.63;1.30;;;7.30;96.30;;;;;;4996805;28;20495;-80
2021/11/02 16:22:54;;;;;;;3.30;2.60;;;7.30;96.30;;;;;;4995814;28;20432;-80
2021/11/02 16:25:20;;;;;;;3.47;1.40;;;7.30;96.30;;;;;;4979275;28;20420;-81
2021/11/02 16:28:02;;;;;;;10.93;2.17;;;7.20;96.30;;;;;;4977756;28;20428;-81
2021/11/02 16:30:34;;;;;;;3.20;1.30;;;7.20;96.30;;;;;;4977956;28;20655;-79
2021/11/02 16:33:01;;;;;;;2.83;1.57;;;7.30;96.30;;;;;;4994423;28;20904;-78
2021/11/02 16:35:41;;;;;;;3.07;1.40;;;7.30;96.30;;;;;;4994752;28;20479;-78
2021/11/02 16:38:26;;;;;;;1.80;1.27;;;7.30;96.30;;;;;;4994699;28;20423;-78
2021/11/02 16:41:06;;;;;;;2.50;1.23;;;7.40;96.30;;;;;;4994692;28;20440;-77
2021/11/02 16:43:55;;;;;;;4.30;1.50;;;7.50;96.30;;;;;;4994709;28;20421;-77
2021/11/02 16:46:37;;;;;;;4.30;2.27;;;7.40;96.30;;;;;;4977544;28;20816;-78
2021/11/02 16:49:18;;;;;;;2.70;1.90;;;7.40;96.30;;;;;;4976879;28;20512;-78
2021/11/02 16:51:47;;;;;;;8.60;7.40;;;7.30;96.30;;;;;;4993925;28;20447;-78
2021/11/02 16:54:14;;;;;;;2.17;1.93;;;7.30;96.30;;;;;;4976892;28;20964;-79
2021/11/02 16:57:18;;;;;;;8.30;3.50;;;7.30;96.30;;;;;;4977043;28;20428;-78
2021/11/02 17:00:04;;;;;;;2.63;2.43;;;7.30;96.30;;;;;;4994441;28;20414;-77
2021/11/02 17:02:36;;;;;;;5.03;2.67;;;7.30;96.30;;;;;;4976249;28;20467;-77
2021/11/02 17:05:07;;;;;;;3.00;2.20;;;7.30;96.30;;;;;;4994070;28;20409;-78
2021/11/02 17:07:53;;;;;;;2.40;1.53;;;7.20;96.30;;;;;;4994246;28;20409;-78
2021/11/02 17:10:26;;;;;;;4.50;2.43;;;7.20;96.30;;;;;;4972556;28;20425;-78
2021/11/02 17:13:00;;;;;;;6.60;3.97;;;7.10;96.30;;;;;;4973865;28;20764;-77
2021/11/02 17:15:28;;;;;;;3.90;2.93;;;7.10;96.30;;;;;;4972910;28;20471;-78
2021/11/02 17:17:55;;;;;;;5.07;3.00;;;7.00;96.30;;;;;;4974096;28;20410;-77
2021/11/02 17:20:21;;;;;;;5.60;3.20;;;6.90;96.30;;;;;;4956737;28;20424;-78
2021/11/02 17:22:47;;;;;;;3.73;2.60;;;6.70;96.30;;;;;;4973621;28;20413;-77
2021/11/02 17:25:15;;;;;;;4.10;2.90;;;6.40;96.30;;;;;;4974276;28;20405;-77
2021/11/02 17:27:42;;;;;;;3.93;2.20;;;6.20;96.30;;;;;;4956531;28;20433;-77
2021/11/02 17:30:17;;;;;;;3.80;2.57;;;6.00;96.30;;;;;;4974176;28;20425;-78
2021/11/02 17:32:43;;;;;;;5.27;3.03;;;5.80;96.30;;;;;;4973496;28;20781;-78
2021/11/02 17:35:09;;;;;;;5.63;3.40;;;5.70;96.30;;;;;;4973938;28;20465;-78
2021/11/02 17:37:35;;;;;;;6.37;3.30;;;5.60;96.30;;;;;;4959188;28;20776;-77
2021/11/02 17:40:01;;;;;;;16.43;9.10;;;5.60;96.30;;;;;;4976041;28;20507;-77
2021/11/02 17:42:27;;;;;;;10.27;5.90;;;5.60;96.30;;;;;;4990911;28;20228;-79
2021/11/02 17:44:52;;;;;;;10.07;8.10;;;5.60;96.30;;;;;;4993182;28;20641;-78
2021/11/02 17:47:19;;;;;;;10.63;7.70;;;5.60;96.30;;;;;;4993201;28;20181;-79
2021/11/02 17:49:46;;;;;;;5.57;4.53;;;5.60;96.30;;;;;;4993241;28;20186;-78
2021/11/02 17:52:12;;;;;;;7.37;2.97;;;5.70;96.30;;;;;;4992595;28;20477;-77
2021/11/02 17:54:39;;;;;;;11.13;6.30;;;5.70;96.30;;;;;;4992774;28;20491;-78
2021/11/02 17:57:07;;;;;;;3.93;3.10;;;5.80;96.30;;;;;;4993065;28;20724;-79
2021/11/02 17:59:33;;;;;;;18.37;15.13;;;5.80;96.30;;;;;;4992758;28;20405;-78
2021/11/02 18:02:03;;;;;;;21.30;18.33;;;5.80;96.30;;;;;;4978372;28;20525;-80
2021/11/02 18:04:31;;;;;;;7.47;5.60;;;5.90;96.30;;;;;;4956446;28;20929;-78
2021/11/02 18:06:58;;;;;;;44.47;31.60;;;5.90;96.30;;;;;;4973646;28;20435;-79
2021/11/02 18:09:24;;;;;;;9.37;6.97;;;5.80;96.30;;;;;;4956483;28;20568;-79
2021/11/02 18:11:50;;;;;;;13.60;9.93;;;5.70;96.30;;;;;;4973044;28;20441;-80
2021/11/02 18:14:16;;;;;;;6.83;4.73;;;5.70;96.30;;;;;;4973555;28;20212;-78
2021/11/02 18:16:44;;;;;;;17.23;13.07;;;5.70;96.30;;;;;;4973118;28;20428;-79
2021/11/02 18:19:12;;;;;;;31.03;26.13;;;5.70;96.30;;;;;;4993020;28;20440;-79
2021/11/02 18:21:38;;;;;;;21.93;19.03;;;5.80;96.30;;;;;;4974896;28;20811;-80
2021/11/02 18:24:06;;;;;;;5.17;3.80;;;5.80;96.30;;;;;;4993088;28;20419;-80
2021/11/02 18:26:33;;;;;;;8.77;6.77;;;5.80;96.30;;;;;;4993469;28;20467;-78
2021/11/02 18:28:59;;;;;;;6.67;6.07;;;5.70;96.30;;;;;;4993483;28;20417;-79
2021/11/02 18:31:26;;;;;;;15.50;10.37;;;5.70;96.30;;;;;;4960723;28;20456;-80
2021/11/02 18:33:52;;;;;;;9.23;8.03;;;5.70;96.30;;;;;;4976288;28;20201;-79
2021/11/02 18:36:20;;;;;;;6.30;5.63;;;5.70;96.30;;;;;;4974228;28;20507;-80
2021/11/02 18:38:47;;;;;;;16.60;13.37;;;5.60;96.30;;;;;;4976405;28;20479;-78
2021/11/02 18:41:13;;;;;;;5.70;4.63;;;5.60;96.30;;;;;;4991235;28;20448;-79
2021/11/02 18:43:41;;;;;;;7.53;3.90;;;5.60;96.30;;;;;;4977920;28;20432;-80
2021/11/02 18:46:08;;;;;;;5.43;3.17;;;5.60;96.30;;;;;;4992795;28;20525;-80
2021/11/02 18:48:35;;;;;;;29.07;16.60;;;5.60;96.30;;;;;;4994988;28;20516;-80
2021/11/02 18:51:01;;;;;;;11.87;7.30;;;5.60;96.30;;;;;;4995995;28;20432;-80
2021/11/02 18:53:27;;;;;;;5.10;3.40;;;5.60;96.30;;;;;;4979080;28;20439;-81
2021/11/02 18:55:54;;;;;;;3.60;2.47;;;5.70;96.30;;;;;;4977620;28;20178;-80
2021/11/02 18:58:22;;;;;;;3.83;2.70;;;5.70;96.30;;;;;;4977551;28;20564;-79
2021/11/02 19:00:48;;;;;;;5.30;2.60;;;5.70;96.30;;;;;;4994090;28;20460;-79
2021/11/02 19:03:14;;;;;;;5.60;1.80;;;5.80;96.30;;;;;;4994315;28;20903;-79
2021/11/02 19:05:42;;;;;;;6.10;2.70;;;6.00;96.30;;;;;;4994373;28;20178;-78
2021/11/02 19:08:15;;;;;;;3.63;3.00;;;6.10;96.30;;;;;;4976164;28;20448;-80
2021/11/02 19:10:42;;;;;;;6.47;3.43;;;6.10;96.30;;;;;;4994220;28;20448;-82
2021/11/02 19:13:08;;;;;;;6.57;2.70;;;6.10;96.30;;;;;;4997508;28;20455;-78
2021/11/02 19:15:34;;;;;;;13.30;9.23;;;6.20;96.30;;;;;;4980280;28;20466;-78
2021/11/02 19:18:01;;;;;;;321.13;280.30;;;6.20;96.30;;;;;;4980487;28;20417;-77
2021/11/02 19:20:27;;;;;;;92.53;78.70;;;6.10;96.30;;;;;;4997210;28;20552;-77
2021/11/02 19:22:52;;;;;;;27.77;25.07;;;6.10;96.30;;;;;;5000032;28;20397;-79
2021/11/02 19:25:18;;;;;;;13.00;11.63;;;6.10;96.30;;;;;;4983335;28;20420;-79
2021/11/02 19:27:44;;;;;;;6.70;6.00;;;6.10;96.30;;;;;;4983179;28;20641;-78
2021/11/02 19:30:10;;;;;;;13.20;8.93;;;6.10;96.30;;;;;;4999600;28;20244;-82
2021/11/02 19:32:36;;;;;;;5.30;4.43;;;6.20;96.30;;;;;;5001051;28;20272;-79
2021/11/02 19:35:03;;;;;;;6.30;3.70;;;6.20;96.30;;;;;;4981207;28;20539;-78
2021/11/02 19:37:29;;;;;;;4.53;3.00;;;6.30;96.30;;;;;;4999498;28;20232;-79
2021/11/02 19:39:54;;;;;;;5.67;4.53;;;6.40;96.30;;;;;;4982537;28;20425;-78
2021/11/02 19:42:19;;;;;;;6.97;4.50;;;6.50;96.30;;;;;;4981876;28;20205;-80
2021/11/02 19:44:46;;;;;;;4.33;3.33;;;6.60;96.30;;;;;;4999999;28;20193;-79
2021/11/02 19:47:16;;;;;;;7.77;2.80;;;6.60;96.30;;;;;;4999594;28;20530;-78
2021/11/02 19:49:44;;;;;;;4.97;3.60;;;6.60;96.30;;;;;;5000086;28;20451;-77
2021/11/02 19:52:09;;;;;;;5.57;3.70;;;6.60;96.30;;;;;;4999249;28;20528;-78
2021/11/02 19:54:36;;;;;;;3.73;3.00;;;6.60;96.30;;;;;;4981831;28;20507;-78
2021/11/02 19:57:02;;;;;;;6.90;4.00;;;6.50;96.30;;;;;;4998201;28;20534;-78
2021/11/02 19:59:28;;;;;;;3.93;2.97;;;6.50;96.30;;;;;;4981361;28;20420;-78
2021/11/02 20:01:55;;;;;;;4.20;3.63;;;6.40;96.30;;;;;;4999003;28;20459;-79
2021/11/02 20:04:21;;;;;;;11.60;4.80;;;6.40;96.30;;;;;;4998441;28;20181;-81
2021/11/02 20:06:56;;;;;;;7.97;4.93;;;6.30;96.30;;;;;;4982696;28;20425;-81
2021/11/02 20:09:33;;;;;;;7.43;4.87;;;6.20;96.30;;;;;;4999567;28;20401;-79
2021/11/02 20:12:07;;;;;;;11.20;8.43;;;6.20;96.30;;;;;;4981949;28;20459;-81
2021/11/02 20:14:34;;;;;;;19.30;14.97;;;6.30;96.30;;;;;;4998968;28;20452;-78
2021/11/02 20:17:01;;;;;;;12.37;9.40;;;6.30;96.30;;;;;;4999162;28;20889;-78
2021/11/02 20:19:31;;;;;;;9.23;7.27;;;6.30;96.30;;;;;;4997162;28;20428;-81
2021/11/02 20:21:57;;;;;;;6.03;2.77;;;6.30;96.30;;;;;;4996006;28;20439;-79
2021/11/02 20:24:29;;;;;;;4.80;3.00;;;6.20;96.30;;;;;;4998020;28;20417;-79
2021/11/02 20:26:57;;;;;;;2.90;2.33;;;6.20;96.30;;;;;;4981647;28;20610;-79
2021/11/02 20:29:25;;;;;;;4.10;2.93;;;6.30;96.30;;;;;;4999014;28;20448;-80
2021/11/02 20:31:52;;;;;;;4.33;3.40;;;6.30;96.30;;;;;;4996604;28;20447;-79
2021/11/02 20:34:18;;;;;;;6.30;4.73;;;6.20;96.30;;;;;;4979210;28;20460;-79